Terminal Aerodrome Forecast
Issued by NWS Sterling, VA

Current Version | Previous Version | Text Only | Print | Product List | Glossary Off
Versions: 1 2 3 4 5 6 7 8 9 10 11 12 13 14 15 16 17 18 19 20 21 22 23 24 25 26 27

433
FTUS41 KLWX 281124
TAFIAD
TAF
KIAD 281124Z 2812/2918 00000KT 3SM MIFG FEW120
     FM281230 VRB03KT P6SM SKC
     FM281800 21004KT P6SM FEW250
     FM290000 15006KT P6SM SCT120
     FM291200 22006KT P6SM BKN150=

USA.gov is the U.S. government's official web portal to all federal, state and local government web resources and services.